Time;durP1;ratioP1;P1;durP2;ratioP2;P2;SDS_P1;SDS_P2;PMS_P1;PMS_P2;Temp;Humidity;BMP_temperature;BMP_pressure;BME280_temperature;BME280_humidity;BME280_pressure;Samples;Min_cycle;Max_cycle;Signal;HPM_P1;HPM_P2
2022/09/14 00:00:46;;;;;;;3.20;1.20;;;17.40;99.90;;;;;;5047854;28;20703;-79
2022/09/14 00:03:12;;;;;;;3.53;1.50;;;17.40;99.90;;;;;;5060767;28;20668;-79
2022/09/14 00:05:38;;;;;;;4.17;1.30;;;17.40;99.90;;;;;;5076863;28;20171;-80
2022/09/14 00:08:03;;;;;;;4.40;1.37;;;17.40;99.90;;;;;;5075959;28;20179;-79
2022/09/14 00:10:29;;;;;;;6.83;1.30;;;17.30;99.90;;;;;;5056226;28;20179;-79
2022/09/14 00:12:55;;;;;;;2.97;1.30;;;17.30;99.90;;;;;;5057228;28;20234;-80
2022/09/14 00:15:21;;;;;;;2.40;1.33;;;17.30;99.90;;;;;;5038428;28;20652;-79
2022/09/14 00:17:46;;;;;;;4.07;1.37;;;17.30;99.90;;;;;;5057472;28;20702;-80
2022/09/14 00:20:12;;;;;;;3.90;1.30;;;17.30;99.90;;;;;;5038263;28;20179;-79
2022/09/14 00:22:38;;;;;;;4.33;1.37;;;17.30;99.90;;;;;;5037745;28;20222;-79
2022/09/14 00:25:03;;;;;;;2.50;1.23;;;17.20;99.90;;;;;;5056212;28;20175;-79
2022/09/14 00:27:29;;;;;;;5.37;1.40;;;17.20;99.90;;;;;;5056247;28;20225;-79
2022/09/14 00:29:54;;;;;;;2.40;1.30;;;17.10;99.90;;;;;;5049217;28;20270;-79
2022/09/14 00:32:20;;;;;;;2.20;1.33;;;17.10;99.90;;;;;;5037876;28;20210;-80
2022/09/14 00:34:45;;;;;;;4.47;1.00;;;17.10;99.90;;;;;;5056143;28;20199;-79
2022/09/14 00:37:11;;;;;;;6.20;1.07;;;17.10;99.90;;;;;;5038248;28;20199;-79
2022/09/14 00:39:37;;;;;;;4.87;1.40;;;17.10;99.90;;;;;;5055420;28;20179;-79
2022/09/14 00:42:04;;;;;;;4.40;1.63;;;17.10;99.90;;;;;;5056686;28;20195;-80
2022/09/14 00:44:30;;;;;;;3.47;1.40;;;17.10;99.90;;;;;;5038795;28;20180;-80
2022/09/14 00:46:59;;;;;;;1.87;1.40;;;17.20;99.90;;;;;;5057371;28;20171;-79
2022/09/14 00:49:36;;;;;;;5.20;1.47;;;17.10;99.90;;;;;;5056720;28;20187;-80
2022/09/14 00:52:29;;;;;;;3.50;1.37;;;17.10;99.90;;;;;;5039507;28;20712;-80
2022/09/14 00:55:08;;;;;;;6.73;1.80;;;17.00;99.90;;;;;;5037173;28;20657;-80
2022/09/14 00:57:38;;;;;;;5.93;1.20;;;17.00;99.90;;;;;;5057835;28;20227;-80
2022/09/14 01:00:06;;;;;;;6.77;1.67;;;16.90;99.90;;;;;;5084391;23;20335;-81
2022/09/14 01:02:32;;;;;;;2.37;1.60;;;17.00;99.90;;;;;;5080004;28;20171;-81
2022/09/14 01:04:58;;;;;;;2.90;1.47;;;17.00;99.90;;;;;;5061525;28;20655;-81
2022/09/14 01:07:41;;;;;;;8.73;1.67;;;16.90;99.90;;;;;;5080174;28;20175;-81
2022/09/14 01:10:13;;;;;;;3.50;1.30;;;17.10;99.90;;;;;;5046131;28;20219;-80
2022/09/14 01:13:00;;;;;;;5.67;1.60;;;16.80;99.90;;;;;;5060364;28;20178;-81
2022/09/14 01:16:14;;;;;;;6.10;1.60;;;16.80;99.90;;;;;;5063848;28;20278;-80
2022/09/14 01:18:44;;;;;;;7.93;1.70;;;16.80;99.90;;;;;;5049039;28;20230;-81
2022/09/14 01:21:12;;;;;;;5.33;1.50;;;16.70;99.90;;;;;;5046710;28;20176;-81
2022/09/14 01:23:46;;;;;;;4.07;1.40;;;16.70;99.90;;;;;;5059996;28;20187;-81
2022/09/14 01:26:18;;;;;;;3.43;1.50;;;16.70;99.90;;;;;;5040878;28;20182;-78
2022/09/14 01:28:52;;;;;;;4.93;1.57;;;16.70;99.90;;;;;;5059699;28;20183;-79
2022/09/14 01:31:24;;;;;;;4.23;1.30;;;16.70;99.90;;;;;;5041320;28;20213;-79
2022/09/14 01:34:02;;;;;;;5.20;1.77;;;16.80;99.90;;;;;;5059041;28;20247;-79
2022/09/14 01:36:30;;;;;;;6.00;2.03;;;16.60;99.90;;;;;;5042438;28;20175;-79
2022/09/14 01:38:57;;;;;;;5.43;1.50;;;16.60;99.90;;;;;;5060580;28;20673;-80
2022/09/14 01:41:28;;;;;;;2.67;1.33;;;16.60;99.90;;;;;;5059926;28;20180;-79
2022/09/14 01:44:03;;;;;;;2.43;1.20;;;16.60;99.90;;;;;;5041952;28;20183;-80
2022/09/14 01:46:35;;;;;;;3.20;1.20;;;16.50;99.90;;;;;;5042591;28;20171;-79
2022/09/14 01:49:29;;;;;;;3.23;1.20;;;16.50;99.90;;;;;;5059804;28;20259;-79
2022/09/14 01:51:59;;;;;;;7.37;1.93;;;16.50;99.90;;;;;;5041209;28;20672;-78
2022/09/14 01:54:44;;;;;;;6.03;1.13;;;16.50;99.90;;;;;;5060147;28;20172;-80
2022/09/14 01:57:15;;;;;;;3.83;1.37;;;16.40;99.90;;;;;;5042943;28;20278;-79
2022/09/14 01:59:43;;;;;;;2.07;1.00;;;16.40;99.90;;;;;;5060296;28;20203;-79
2022/09/14 02:02:11;;;;;;;7.13;1.33;;;16.40;99.90;;;;;;5060633;28;20179;-79
2022/09/14 02:04:43;;;;;;;5.43;1.90;;;16.40;99.90;;;;;;5061224;28;20656;-79
2022/09/14 02:07:09;;;;;;;5.90;1.60;;;16.30;99.90;;;;;;5042331;28;20222;-78
2022/09/14 02:09:36;;;;;;;4.40;1.73;;;16.30;99.90;;;;;;5061036;28;20577;-79
2022/09/14 02:12:02;;;;;;;5.83;1.50;;;16.20;99.90;;;;;;5060897;28;20248;-79
2022/09/14 02:14:29;;;;;;;5.27;1.67;;;16.30;99.90;;;;;;5059306;28;20176;-79
2022/09/14 02:16:55;;;;;;;4.80;1.80;;;16.30;99.90;;;;;;5038781;28;20183;-79
2022/09/14 02:19:21;;;;;;;5.50;1.40;;;16.30;99.90;;;;;;5055716;28;20677;-79
2022/09/14 02:21:46;;;;;;;2.97;1.13;;;16.30;99.90;;;;;;5036951;28;20183;-78
2022/09/14 02:24:14;;;;;;;7.03;1.60;;;16.30;99.90;;;;;;5055027;28;20622;-78
2022/09/14 02:26:41;;;;;;;8.07;1.90;;;16.30;99.90;;;;;;5054824;28;20195;-79
2022/09/14 02:29:07;;;;;;;4.40;1.20;;;16.30;99.90;;;;;;5035792;28;20206;-78
2022/09/14 02:31:51;;;;;;;6.00;1.37;;;16.30;99.90;;;;;;5054923;28;20660;-78
2022/09/14 02:34:43;;;;;;;3.83;1.40;;;16.20;99.90;;;;;;5054691;28;20175;-79
2022/09/14 02:37:16;;;;;;;4.23;1.00;;;16.20;99.90;;;;;;5055452;28;20236;-79
2022/09/14 02:40:09;;;;;;;4.97;1.33;;;16.20;99.90;;;;;;5036343;28;20208;-79
2022/09/14 02:42:37;;;;;;;7.30;1.77;;;16.10;99.90;;;;;;5043434;28;20169;-78
2022/09/14 02:45:37;;;;;;;5.90;1.30;;;16.10;99.90;;;;;;5040338;28;20175;-79
2022/09/14 02:48:33;;;;;;;5.63;1.43;;;16.10;99.90;;;;;;5040995;28;20292;-78
2022/09/14 02:51:14;;;;;;;4.87;1.40;;;16.10;99.90;;;;;;5036610;28;20178;-78
2022/09/14 02:53:46;;;;;;;3.53;1.50;;;16.10;99.90;;;;;;5036852;28;20160;-78
2022/09/14 02:56:12;;;;;;;5.77;1.60;;;16.10;99.90;;;;;;5054332;28;20178;-78
2022/09/14 02:58:40;;;;;;;4.33;1.50;;;16.10;99.90;;;;;;5035789;28;20207;-78
2022/09/14 03:01:09;;;;;;;4.53;1.37;;;16.10;99.90;;;;;;5056407;28;20263;-79
2022/09/14 03:03:35;;;;;;;4.63;1.73;;;16.00;99.90;;;;;;5057150;28;20168;-79
2022/09/14 03:06:01;;;;;;;2.47;1.27;;;16.00;99.90;;;;;;5039985;28;20656;-79
2022/09/14 03:08:27;;;;;;;2.73;1.50;;;16.00;99.90;;;;;;5037795;28;20180;-79
2022/09/14 03:10:53;;;;;;;4.73;1.40;;;16.10;99.90;;;;;;5054325;28;20184;-78
2022/09/14 03:13:20;;;;;;;6.30;1.63;;;16.00;99.90;;;;;;5053833;28;20262;-79
2022/09/14 03:15:46;;;;;;;7.93;1.70;;;16.00;99.90;;;;;;5053820;28;20543;-79
2022/09/14 03:18:11;;;;;;;4.97;1.70;;;16.00;99.90;;;;;;5052794;28;20191;-78
2022/09/14 03:20:37;;;;;;;5.40;1.60;;;16.00;99.90;;;;;;5053711;28;20580;-78
2022/09/14 03:23:04;;;;;;;3.60;1.57;;;15.80;99.90;;;;;;5053841;28;20215;-78
2022/09/14 03:25:34;;;;;;;4.07;1.40;;;15.90;99.90;;;;;;5053869;28;20198;-78
2022/09/14 03:28:00;;;;;;;6.53;1.70;;;16.00;99.90;;;;;;5031111;28;20176;-78
2022/09/14 03:30:26;;;;;;;9.97;1.70;;;16.00;99.90;;;;;;5041948;28;20671;-77
2022/09/14 03:32:52;;;;;;;4.60;1.70;;;15.90;99.90;;;;;;5053537;28;20547;-79
2022/09/14 03:35:18;;;;;;;9.07;2.13;;;15.90;99.90;;;;;;5035546;28;20180;-77
2022/09/14 03:37:45;;;;;;;6.67;1.43;;;15.90;99.90;;;;;;5035536;28;20222;-78
2022/09/14 03:40:12;;;;;;;5.30;1.70;;;15.90;99.90;;;;;;5052531;28;20199;-78
2022/09/14 03:42:43;;;;;;;3.10;1.60;;;15.80;99.90;;;;;;5035454;28;20198;-79
2022/09/14 03:45:10;;;;;;;5.57;1.40;;;15.80;99.90;;;;;;5052393;28;20255;-78
2022/09/14 03:47:36;;;;;;;9.03;2.00;;;15.80;99.90;;;;;;5035421;28;20171;-78
2022/09/14 03:50:01;;;;;;;8.03;1.80;;;15.90;99.90;;;;;;5034312;28;20678;-78
2022/09/14 03:52:27;;;;;;;6.07;1.60;;;15.80;99.90;;;;;;5053304;28;20262;-78
2022/09/14 03:54:52;;;;;;;5.80;1.70;;;15.80;99.90;;;;;;5053334;28;20171;-78
2022/09/14 03:57:18;;;;;;;11.87;1.70;;;15.80;99.90;;;;;;5035405;28;20203;-78
2022/09/14 03:59:43;;;;;;;8.17;1.47;;;15.80;99.90;;;;;;5035329;28;20211;-78
2022/09/14 04:02:09;;;;;;;5.13;1.60;;;15.70;99.90;;;;;;5054821;28;20180;-78
2022/09/14 04:04:34;;;;;;;5.87;1.80;;;15.70;99.90;;;;;;5054685;28;20599;-78
2022/09/14 04:07:00;;;;;;;3.17;1.23;;;15.70;99.90;;;;;;5038071;28;20633;-78
2022/09/14 04:09:25;;;;;;;6.50;1.40;;;15.60;99.90;;;;;;5054006;28;20649;-78
2022/09/14 04:11:51;;;;;;;7.17;1.47;;;15.70;99.90;;;;;;5033378;28;20175;-79
2022/09/14 04:14:17;;;;;;;6.57;1.70;;;15.70;99.90;;;;;;5034931;28;20175;-77
2022/09/14 04:16:43;;;;;;;4.50;1.57;;;15.70;99.90;;;;;;5052868;28;20213;-78
2022/09/14 04:19:10;;;;;;;4.77;1.67;;;15.70;99.90;;;;;;5052759;28;20222;-78
2022/09/14 04:21:36;;;;;;;7.47;1.70;;;15.70;99.90;;;;;;5051926;28;20646;-78
2022/09/14 04:24:02;;;;;;;10.70;2.10;;;15.60;99.90;;;;;;5052856;28;20202;-77
2022/09/14 04:26:29;;;;;;;6.73;1.70;;;15.60;99.90;;;;;;5052779;28;20172;-78
2022/09/14 04:28:55;;;;;;;7.27;1.73;;;15.60;99.90;;;;;;5052857;28;20213;-77
2022/09/14 04:31:22;;;;;;;4.63;1.77;;;15.60;99.90;;;;;;5041375;28;20262;-77
2022/09/14 04:33:49;;;;;;;6.97;1.70;;;15.50;99.90;;;;;;5032737;28;20216;-78
2022/09/14 04:36:17;;;;;;;5.20;1.70;;;15.50;99.90;;;;;;5015042;28;20202;-77
2022/09/14 04:38:43;;;;;;;6.70;1.57;;;15.60;99.90;;;;;;5032571;28;20612;-78
2022/09/14 04:41:14;;;;;;;8.80;2.17;;;15.60;99.90;;;;;;5041437;28;20233;-78
2022/09/14 04:43:41;;;;;;;6.93;1.70;;;15.60;99.90;;;;;;5034622;28;20172;-78
2022/09/14 04:46:17;;;;;;;7.97;1.97;;;15.60;99.90;;;;;;5052587;28;20171;-78
2022/09/14 04:48:43;;;;;;;6.53;1.73;;;15.50;99.90;;;;;;5033646;28;20195;-78
2022/09/14 04:51:17;;;;;;;3.57;1.77;;;15.60;99.90;;;;;;5051294;28;20233;-78
2022/09/14 04:53:45;;;;;;;6.10;1.67;;;15.50;99.90;;;;;;5036163;28;20174;-78
2022/09/14 04:56:12;;;;;;;4.63;1.70;;;15.50;99.90;;;;;;5056914;28;20221;-78
2022/09/14 04:58:44;;;;;;;4.40;1.60;;;15.50;99.90;;;;;;5060320;28;20227;-78
2022/09/14 05:01:13;;;;;;;7.50;1.87;;;15.50;99.90;;;;;;5065891;28;20180;-79
2022/09/14 05:03:39;;;;;;;5.70;1.90;;;15.40;99.90;;;;;;5045089;28;20168;-79
2022/09/14 05:06:08;;;;;;;5.37;1.90;;;15.30;99.90;;;;;;5059093;28;20241;-79
2022/09/14 05:08:35;;;;;;;4.00;1.70;;;15.30;99.90;;;;;;5058868;28;20661;-79
2022/09/14 05:11:01;;;;;;;4.00;1.93;;;15.20;99.90;;;;;;5058765;28;20168;-79
2022/09/14 05:13:27;;;;;;;8.37;1.70;;;15.30;99.90;;;;;;5058507;28;20547;-79
2022/09/14 05:15:52;;;;;;;5.53;1.83;;;15.30;99.90;;;;;;5058542;28;20179;-78
2022/09/14 05:18:18;;;;;;;7.70;1.90;;;15.30;99.90;;;;;;5040257;28;20192;-78
2022/09/14 05:20:44;;;;;;;6.93;1.80;;;15.40;99.90;;;;;;5056733;28;20172;-78
2022/09/14 05:23:10;;;;;;;5.50;1.70;;;15.30;99.90;;;;;;5058539;28;20633;-78
2022/09/14 05:25:35;;;;;;;6.77;1.83;;;15.30;99.90;;;;;;5059383;28;20182;-78
2022/09/14 05:28:01;;;;;;;3.73;1.83;;;15.30;99.90;;;;;;5040819;28;20179;-78
2022/09/14 05:30:26;;;;;;;8.73;2.00;;;15.30;99.90;;;;;;5057456;28;20216;-79
2022/09/14 05:32:52;;;;;;;7.70;1.93;;;15.20;99.90;;;;;;5058404;28;20180;-78
2022/09/14 05:35:18;;;;;;;7.13;2.40;;;15.20;99.90;;;;;;5056994;28;20183;-78
2022/09/14 05:37:43;;;;;;;4.67;1.80;;;15.20;99.90;;;;;;5057482;28;20194;-78
2022/09/14 05:40:09;;;;;;;4.97;1.90;;;15.30;99.90;;;;;;5057593;28;20211;-78
2022/09/14 05:42:35;;;;;;;5.10;2.07;;;15.30;99.90;;;;;;5056758;28;20182;-78
2022/09/14 05:45:00;;;;;;;6.20;2.10;;;15.30;99.90;;;;;;5039269;28;20544;-78
2022/09/14 05:47:30;;;;;;;6.60;1.73;;;15.30;99.90;;;;;;5056526;28;20194;-78
2022/09/14 05:49:56;;;;;;;5.23;2.07;;;15.30;99.90;;;;;;5055278;28;20574;-78
2022/09/14 05:52:22;;;;;;;5.47;1.77;;;15.30;99.90;;;;;;5038755;28;20183;-78
2022/09/14 05:54:47;;;;;;;7.77;2.20;;;15.30;99.90;;;;;;5038741;28;20199;-78
2022/09/14 05:57:13;;;;;;;4.73;1.90;;;15.30;99.90;;;;;;5056596;28;20254;-78
2022/09/14 05:59:38;;;;;;;5.70;2.30;;;15.30;99.90;;;;;;5038447;28;20566;-79
2022/09/14 06:02:04;;;;;;;7.10;2.33;;;15.30;99.90;;;;;;5055734;28;20183;-78
2022/09/14 06:04:29;;;;;;;4.93;1.87;;;15.30;99.90;;;;;;5057044;28;20311;-78
2022/09/14 06:06:55;;;;;;;6.57;1.87;;;15.30;99.90;;;;;;5055881;28;20164;-78
2022/09/14 06:09:21;;;;;;;7.93;2.20;;;15.30;99.90;;;;;;5056189;28;20673;-78
2022/09/14 06:11:46;;;;;;;6.77;2.40;;;15.20;99.90;;;;;;5054922;28;20549;-78
2022/09/14 06:14:12;;;;;;;12.73;2.60;;;15.30;99.90;;;;;;5038156;28;20680;-78
2022/09/14 06:16:37;;;;;;;6.10;2.50;;;15.20;99.90;;;;;;5056592;28;20626;-78
2022/09/14 06:19:03;;;;;;;10.43;2.60;;;15.20;99.90;;;;;;5037984;28;20214;-78
2022/09/14 06:21:31;;;;;;;7.97;2.43;;;15.20;99.90;;;;;;5054423;28;20183;-78
2022/09/14 06:23:58;;;;;;;4.93;2.70;;;15.20;99.90;;;;;;5055434;28;20184;-78
2022/09/14 06:26:24;;;;;;;6.97;2.27;;;15.20;99.90;;;;;;5055315;28;20168;-78
2022/09/14 06:28:49;;;;;;;4.13;2.53;;;15.20;99.90;;;;;;5054055;28;20590;-78
2022/09/14 06:31:16;;;;;;;9.30;2.40;;;15.10;99.90;;;;;;5054980;28;20255;-78
2022/09/14 06:33:46;;;;;;;3.73;2.13;;;15.10;99.90;;;;;;5037424;28;20528;-78
2022/09/14 06:36:18;;;;;;;7.90;3.00;;;15.10;99.90;;;;;;5036872;28;20250;-78
2022/09/14 06:38:45;;;;;;;4.93;2.43;;;15.10;99.90;;;;;;5053769;28;20290;-77
2022/09/14 06:41:13;;;;;;;8.07;2.73;;;15.20;99.90;;;;;;5054817;28;20167;-77
2022/09/14 06:43:40;;;;;;;4.80;2.63;;;15.10;99.90;;;;;;5054835;28;20186;-78
2022/09/14 06:46:13;;;;;;;7.03;3.00;;;15.10;99.90;;;;;;5055104;28;20171;-78
2022/09/14 06:48:45;;;;;;;7.73;2.90;;;15.10;99.90;;;;;;5054001;28;20192;-77
2022/09/14 06:51:23;;;;;;;5.03;3.00;;;15.10;99.90;;;;;;5016853;28;20251;-78
2022/09/14 06:53:49;;;;;;;6.67;3.40;;;15.10;99.90;;;;;;5034584;28;20251;-78
2022/09/14 06:56:16;;;;;;;8.83;2.90;;;15.10;99.90;;;;;;5034317;28;20224;-78
2022/09/14 06:58:42;;;;;;;8.73;3.33;;;15.10;99.90;;;;;;5033745;28;20223;-77
2022/09/14 07:01:11;;;;;;;9.27;2.67;;;15.10;99.90;;;;;;5036129;28;20553;-78
2022/09/14 07:03:38;;;;;;;5.47;2.87;;;15.10;99.90;;;;;;5036364;28;20555;-78
2022/09/14 07:06:06;;;;;;;5.60;3.07;;;15.00;99.90;;;;;;5060886;22;20175;-76
2022/09/14 07:08:36;;;;;;;4.00;2.47;;;15.00;99.90;;;;;;5075346;28;20201;-76
2022/09/14 07:11:04;;;;;;;4.97;2.60;;;15.00;99.90;;;;;;5055082;28;20218;-77
2022/09/14 07:13:30;;;;;;;5.50;2.70;;;15.00;99.90;;;;;;5054331;28;20179;-77
2022/09/14 07:15:56;;;;;;;6.33;3.20;;;15.10;99.90;;;;;;5054669;28;20199;-77
2022/09/14 07:18:27;;;;;;;8.13;3.07;;;15.10;99.90;;;;;;5074570;28;20210;-76
2022/09/14 07:20:53;;;;;;;4.80;2.67;;;15.10;99.90;;;;;;5073777;28;20183;-77
2022/09/14 07:23:19;;;;;;;5.83;2.80;;;15.10;99.90;;;;;;5082618;28;20204;-77
2022/09/14 07:25:44;;;;;;;5.60;2.70;;;15.00;99.90;;;;;;5081627;28;20206;-77
2022/09/14 07:28:10;;;;;;;6.93;2.93;;;15.00;99.90;;;;;;5080659;28;20206;-77
2022/09/14 07:30:37;;;;;;;5.40;2.87;;;15.00;99.90;;;;;;5079722;28;20205;-77
2022/09/14 07:33:04;;;;;;;7.60;3.30;;;15.00;99.90;;;;;;5083536;28;20206;-76
2022/09/14 07:35:30;;;;;;;8.53;3.03;;;15.00;99.90;;;;;;5081806;28;20567;-77
2022/09/14 07:37:56;;;;;;;9.60;3.50;;;15.10;99.90;;;;;;5083691;28;20285;-79
2022/09/14 07:40:22;;;;;;;4.70;3.37;;;15.10;99.90;;;;;;5086413;28;20198;-79
2022/09/14 07:42:51;;;;;;;5.80;2.73;;;15.20;99.90;;;;;;5080173;28;20206;-76
2022/09/14 07:45:17;;;;;;;6.60;3.67;;;15.10;99.90;;;;;;5078954;28;20261;-76
2022/09/14 07:47:42;;;;;;;5.37;2.87;;;15.00;99.90;;;;;;5078105;28;20676;-77
2022/09/14 07:50:08;;;;;;;7.23;3.30;;;15.00;99.90;;;;;;5085319;28;20254;-77
2022/09/14 07:52:34;;;;;;;7.60;3.03;;;15.00;99.90;;;;;;5082711;28;20201;-77
2022/09/14 07:54:59;;;;;;;5.73;3.13;;;15.10;99.90;;;;;;5083667;28;20228;-77
2022/09/14 07:57:26;;;;;;;8.73;3.30;;;15.00;99.90;;;;;;5086206;28;20203;-77
2022/09/14 07:59:51;;;;;;;6.50;3.50;;;15.00;99.90;;;;;;5083995;28;20181;-77
2022/09/14 08:02:17;;;;;;;5.53;3.33;;;15.00;99.90;;;;;;5083587;28;20182;-77
2022/09/14 08:04:43;;;;;;;4.67;2.80;;;15.10;99.90;;;;;;5084327;28;20172;-76
2022/09/14 08:07:09;;;;;;;5.03;3.20;;;15.00;99.90;;;;;;5087818;28;20702;-78
2022/09/14 08:09:34;;;;;;;6.00;3.00;;;15.10;99.90;;;;;;5084615;28;20171;-77
2022/09/14 08:12:00;;;;;;;5.37;3.00;;;15.10;99.90;;;;;;5085005;28;20167;-78
2022/09/14 08:14:25;;;;;;;4.30;2.43;;;15.00;99.90;;;;;;5083209;28;20255;-78
2022/09/14 08:16:51;;;;;;;8.13;3.13;;;15.00;99.90;;;;;;5085104;28;20189;-78
2022/09/14 08:19:19;;;;;;;5.10;3.00;;;15.00;99.90;;;;;;5083406;28;20621;-78
2022/09/14 08:21:45;;;;;;;9.80;3.03;;;15.00;99.90;;;;;;5080799;28;20173;-79
2022/09/14 08:24:12;;;;;;;5.60;3.30;;;15.00;99.90;;;;;;5084930;28;20252;-78
2022/09/14 08:26:39;;;;;;;5.93;3.13;;;15.00;99.90;;;;;;5085796;28;20267;-78
2022/09/14 08:29:06;;;;;;;5.47;3.20;;;15.10;99.90;;;;;;5087048;28;20170;-78
2022/09/14 08:31:36;;;;;;;5.93;3.37;;;15.10;99.90;;;;;;5083098;28;20177;-78
2022/09/14 08:34:03;;;;;;;5.27;2.73;;;15.10;99.90;;;;;;5088825;28;20265;-79
2022/09/14 08:36:31;;;;;;;7.63;2.83;;;15.10;99.90;;;;;;5088215;28;20198;-78
2022/09/14 08:38:57;;;;;;;5.10;3.07;;;15.10;99.90;;;;;;5086192;28;20191;-79
2022/09/14 08:41:42;;;;;;;6.30;3.23;;;15.10;99.90;;;;;;5092493;28;20181;-78
2022/09/14 08:44:11;;;;;;;5.13;2.70;;;15.10;99.90;;;;;;5082423;28;20167;-78
2022/09/14 08:46:48;;;;;;;4.33;2.83;;;15.10;99.90;;;;;;5082224;28;20688;-78
2022/09/14 08:49:42;;;;;;;3.43;2.30;;;15.10;99.90;;;;;;5084316;28;20173;-78
2022/09/14 08:52:12;;;;;;;5.03;2.30;;;15.00;99.90;;;;;;5092720;28;20694;-78
2022/09/14 08:54:38;;;;;;;5.07;2.60;;;14.90;99.90;;;;;;5090552;28;20274;-78
2022/09/14 08:57:47;;;;;;;2.83;1.93;;;15.00;99.90;;;;;;5088409;28;20222;-78
2022/09/14 09:00:17;;;;;;;6.27;1.97;;;15.00;99.90;;;;;;5087157;28;20171;-78
2022/09/14 09:03:16;;;;;;;7.37;2.17;;;14.90;99.90;;;;;;5089013;28;20178;-77
2022/09/14 09:05:56;;;;;;;3.50;1.93;;;15.00;99.90;;;;;;5085843;28;20166;-78
2022/09/14 09:08:38;;;;;;;5.63;2.10;;;15.00;99.90;;;;;;5084638;28;20202;-78
2022/09/14 09:11:06;;;;;;;4.93;2.30;;;15.10;99.90;;;;;;5082569;28;20706;-79
2022/09/14 09:13:34;;;;;;;5.93;2.10;;;15.00;99.90;;;;;;5081407;28;20183;-79
2022/09/14 09:16:04;;;;;;;5.57;2.10;;;15.00;99.90;;;;;;5084580;28;20544;-79
2022/09/14 09:18:41;;;;;;;3.27;1.70;;;15.10;99.90;;;;;;5091217;28;20218;-79
2022/09/14 09:21:15;;;;;;;3.87;1.97;;;15.10;99.90;;;;;;5091801;28;20230;-79
2022/09/14 09:23:42;;;;;;;4.27;2.20;;;15.10;99.90;;;;;;5087965;28;20166;-78
2022/09/14 09:26:29;;;;;;;4.90;2.00;;;15.10;99.90;;;;;;5087001;28;20644;-79
2022/09/14 09:29:00;;;;;;;4.03;1.93;;;15.10;99.90;;;;;;5090380;28;20183;-79
2022/09/14 09:31:44;;;;;;;7.37;2.07;;;15.10;99.90;;;;;;5088996;28;20178;-79
2022/09/14 09:34:14;;;;;;;3.93;1.60;;;15.10;99.90;;;;;;5078219;28;20645;-78
2022/09/14 09:36:45;;;;;;;5.30;1.60;;;15.10;99.90;;;;;;5083210;28;20228;-78
2022/09/14 09:39:11;;;;;;;5.73;2.17;;;15.10;99.90;;;;;;5101083;28;20186;-79
2022/09/14 09:41:50;;;;;;;4.87;1.87;;;15.20;99.90;;;;;;5100909;28;20713;-77
2022/09/14 09:44:15;;;;;;;4.90;2.30;;;15.20;99.90;;;;;;5100566;28;20638;-79
2022/09/14 09:46:55;;;;;;;4.33;2.23;;;15.20;99.90;;;;;;5100981;28;20186;-78
2022/09/14 09:49:29;;;;;;;7.80;2.37;;;15.20;99.90;;;;;;5099514;28;20193;-79
2022/09/14 09:51:55;;;;;;;3.13;1.60;;;15.20;99.90;;;;;;5091058;28;20186;-78
2022/09/14 09:54:27;;;;;;;4.03;1.83;;;15.30;99.90;;;;;;5092592;28;20266;-79
2022/09/14 09:56:59;;;;;;;5.70;2.77;;;15.20;99.90;;;;;;5089925;28;20221;-78
2022/09/14 09:59:30;;;;;;;4.57;1.80;;;15.20;99.90;;;;;;5089232;28;20553;-79
2022/09/14 10:02:16;;;;;;;3.40;2.07;;;15.10;99.90;;;;;;5087072;28;20162;-79
2022/09/14 10:05:01;;;;;;;6.13;2.33;;;15.20;99.90;;;;;;5086540;28;20175;-78
2022/09/14 10:07:29;;;;;;;4.80;2.00;;;15.30;99.90;;;;;;5079017;28;20226;-78
2022/09/14 10:10:04;;;;;;;2.90;1.90;;;15.10;99.90;;;;;;5078149;28;20250;-78
2022/09/14 10:12:31;;;;;;;6.27;2.53;;;15.20;99.90;;;;;;5078471;28;20170;-78
2022/09/14 10:15:27;;;;;;;4.47;2.03;;;15.30;99.90;;;;;;5079399;28;20197;-78
2022/09/14 10:18:12;;;;;;;5.50;2.03;;;15.30;99.90;;;;;;5076778;28;20213;-79
2022/09/14 10:20:53;;;;;;;4.60;2.10;;;15.30;99.90;;;;;;5078375;28;20565;-79
2022/09/14 10:23:18;;;;;;;5.77;1.97;;;15.30;99.90;;;;;;5080101;28;20197;-78
2022/09/14 10:26:12;;;;;;;3.30;1.90;;;15.30;99.90;;;;;;5077762;28;20175;-78
2022/09/14 10:28:46;;;;;;;2.70;1.93;;;15.30;99.90;;;;;;5066918;28;20191;-78
2022/09/14 10:31:23;;;;;;;3.60;1.80;;;15.40;99.90;;;;;;5074309;28;20266;-78
2022/09/14 10:33:57;;;;;;;3.77;1.90;;;15.40;99.90;;;;;;5075503;28;20249;-79
2022/09/14 10:36:31;;;;;;;3.20;1.60;;;15.30;99.90;;;;;;5078143;28;20217;-79
2022/09/14 10:39:30;;;;;;;4.93;2.00;;;15.40;99.90;;;;;;5077305;28;20198;-79
2022/09/14 10:42:10;;;;;;;4.07;1.90;;;15.40;99.90;;;;;;5077344;28;20163;-79
2022/09/14 10:44:58;;;;;;;4.17;1.97;;;15.40;99.90;;;;;;5077106;28;20232;-79
2022/09/14 10:47:41;;;;;;;4.90;2.20;;;15.40;99.90;;;;;;5077782;28;20190;-80
2022/09/14 10:50:39;;;;;;;3.93;2.03;;;15.40;99.90;;;;;;5077167;28;20171;-80
2022/09/14 10:53:18;;;;;;;3.87;1.77;;;15.50;99.90;;;;;;5078271;28;20159;-79
2022/09/14 10:56:06;;;;;;;2.73;1.90;;;15.40;99.90;;;;;;5078475;28;20174;-79
2022/09/14 10:58:34;;;;;;;4.00;2.13;;;15.50;99.90;;;;;;5078928;28;20183;-79
2022/09/14 11:01:13;;;;;;;3.97;1.97;;;15.50;99.90;;;;;;5079300;28;20541;-80
2022/09/14 11:03:51;;;;;;;5.67;2.13;;;15.60;99.90;;;;;;5077124;28;20176;-77
2022/09/14 11:06:48;;;;;;;3.50;2.20;;;15.50;99.90;;;;;;5079647;28;20217;-79
2022/09/14 11:09:17;;;;;;;4.77;1.93;;;15.50;99.90;;;;;;5080074;28;20229;-79
2022/09/14 11:11:49;;;;;;;3.27;2.00;;;15.40;99.90;;;;;;5081377;28;20175;-79
2022/09/14 11:14:15;;;;;;;4.23;2.20;;;15.40;99.90;;;;;;5081171;28;20182;-78
2022/09/14 11:16:59;;;;;;;4.20;2.70;;;15.50;99.90;;;;;;5082799;28;20198;-78
2022/09/14 11:19:57;;;;;;;4.33;2.47;;;15.50;99.90;;;;;;5082651;28;20228;-80
2022/09/14 11:22:52;;;;;;;6.87;2.60;;;15.50;99.90;;;;;;5045782;28;20189;-79
2022/09/14 11:25:28;;;;;;;4.57;3.30;;;15.50;99.90;;;;;;5086980;28;20210;-80
2022/09/14 11:27:58;;;;;;;3.50;2.60;;;15.60;99.90;;;;;;5083334;28;20193;-80
2022/09/14 11:30:44;;;;;;;4.57;2.97;;;15.60;99.90;;;;;;5083568;28;20218;-79
2022/09/14 11:33:21;;;;;;;4.97;2.83;;;15.60;99.90;;;;;;5088833;28;20198;-79
2022/09/14 11:36:02;;;;;;;6.37;2.97;;;15.60;99.90;;;;;;5081962;28;20577;-80
2022/09/14 11:38:34;;;;;;;4.93;3.07;;;15.70;99.90;;;;;;5089239;28;20201;-79
2022/09/14 11:41:26;;;;;;;5.17;3.17;;;15.70;99.90;;;;;;5084106;28;20176;-79
2022/09/14 11:43:57;;;;;;;4.10;3.27;;;15.70;99.90;;;;;;5049484;28;20195;-79
2022/09/14 11:46:36;;;;;;;7.63;4.00;;;15.60;99.90;;;;;;5075380;28;20195;-79
2022/09/14 11:49:23;;;;;;;4.57;4.07;;;15.60;99.90;;;;;;5076811;28;20166;-78
2022/09/14 11:51:54;;;;;;;9.33;4.60;;;15.60;99.90;;;;;;5078202;28;20159;-79
2022/09/14 11:54:22;;;;;;;5.17;3.80;;;15.60;99.90;;;;;;5078975;28;20167;-80
2022/09/14 11:56:50;;;;;;;7.67;4.33;;;15.50;99.90;;;;;;5076365;28;20229;-79
2022/09/14 11:59:38;;;;;;;4.70;4.00;;;15.50;99.90;;;;;;5078629;28;20198;-78
2022/09/14 12:02:21;;;;;;;5.23;3.77;;;15.50;99.90;;;;;;5076949;28;20179;-79
2022/09/14 12:05:05;;;;;;;5.20;4.17;;;15.40;99.90;;;;;;5079433;28;20232;-80
2022/09/14 12:07:46;;;;;;;5.17;3.90;;;15.50;99.90;;;;;;5079244;28;20206;-79
2022/09/14 12:10:14;;;;;;;4.47;3.37;;;15.50;99.90;;;;;;5079191;28;20159;-79
2022/09/14 12:12:53;;;;;;;4.93;3.30;;;15.60;99.90;;;;;;5077401;28;20224;-79
2022/09/14 12:15:25;;;;;;;4.47;3.40;;;15.60;99.90;;;;;;5077856;28;20180;-79
2022/09/14 12:18:16;;;;;;;5.33;3.10;;;15.60;99.90;;;;;;5080745;28;20211;-80
2022/09/14 12:20:58;;;;;;;3.40;2.43;;;15.60;99.90;;;;;;5082563;28;20178;-79
2022/09/14 12:23:36;;;;;;;2.70;2.50;;;15.50;99.90;;;;;;5082207;28;20235;-80
2022/09/14 12:26:23;;;;;;;4.00;2.20;;;15.40;99.90;;;;;;5081886;28;20193;-80
2022/09/14 12:28:55;;;;;;;2.80;2.10;;;15.40;99.90;;;;;;5079591;28;20217;-80
2022/09/14 12:31:54;;;;;;;4.33;2.17;;;15.60;99.90;;;;;;5079752;28;20171;-80
2022/09/14 12:34:30;;;;;;;2.73;2.00;;;15.40;99.90;;;;;;5080294;28;20175;-81
2022/09/14 12:37:00;;;;;;;3.50;2.00;;;15.40;99.90;;;;;;5079642;28;20198;-81
2022/09/14 12:39:34;;;;;;;2.13;1.67;;;15.30;99.90;;;;;;5080174;28;20550;-81
2022/09/14 12:42:23;;;;;;;3.30;2.10;;;15.30;99.90;;;;;;5081176;28;20582;-81
2022/09/14 12:44:49;;;;;;;3.37;1.90;;;15.20;99.90;;;;;;5075696;28;20178;-79
2022/09/14 12:47:37;;;;;;;1.70;1.60;;;15.20;99.90;;;;;;5073414;28;20673;-79
2022/09/14 12:50:10;;;;;;;2.33;1.53;;;15.20;99.90;;;;;;5074422;28;20164;-79
2022/09/14 12:52:46;;;;;;;2.13;1.33;;;15.10;99.90;;;;;;5077054;28;20163;-80
2022/09/14 12:55:39;;;;;;;1.60;1.20;;;15.10;99.90;;;;;;5076916;28;20166;-80
2022/09/14 12:58:30;;;;;;;1.73;1.10;;;15.10;99.90;;;;;;5073669;28;20256;-79
2022/09/14 13:01:31;;;;;;;2.97;1.27;;;15.00;99.90;;;;;;5076261;28;20623;-80
2022/09/14 13:03:57;;;;;;;1.13;1.00;;;14.80;99.90;;;;;;5072969;28;20171;-79
2022/09/14 13:06:27;;;;;;;1.30;1.03;;;14.90;99.90;;;;;;5076417;28;20573;-80
2022/09/14 13:08:55;;;;;;;3.83;1.13;;;14.80;99.90;;;;;;5079171;28;20622;-80